createdAt,value
2019-05-02T00:00:31.105Z,0.0000
2019-05-02T00:01:33.173Z,0.0000
2019-05-02T00:02:35.316Z,0.0000
2019-05-02T00:03:41.103Z,0.0000
2019-05-02T00:04:43.465Z,0.0000
2019-05-02T00:05:45.378Z,0.0000
2019-05-02T00:06:47.271Z,0.0000
2019-05-02T00:07:49.352Z,0.0000
2019-05-02T00:08:51.287Z,0.0000
2019-05-02T00:09:53.197Z,0.0000
2019-05-02T00:10:55.096Z,0.0000
2019-05-02T00:11:58.793Z,0.0000
2019-05-02T00:13:01.314Z,0.0000
2019-05-02T00:14:03.261Z,0.0000
2019-05-02T00:15:05.096Z,0.0000
2019-05-02T00:16:09.220Z,0.0000
2019-05-02T00:17:13.287Z,0.0000
2019-05-02T00:18:15.519Z,0.0000
2019-05-02T00:19:17.386Z,0.0000
2019-05-02T00:20:21.110Z,0.0000
2019-05-02T00:21:25.544Z,0.0000
2019-05-02T00:22:27.385Z,0.0000
2019-05-02T00:23:29.654Z,0.0000
2019-05-02T00:24:33.951Z,0.0000
2019-05-02T00:25:37.878Z,0.0000
2019-05-02T00:26:39.707Z,0.0000
2019-05-02T00:27:41.647Z,0.0000
2019-05-02T00:28:48.216Z,0.0000
2019-05-02T00:29:53.816Z,0.0000
2019-05-02T00:30:56.840Z,0.0000
2019-05-02T00:31:58.947Z,0.0000
2019-05-02T00:33:00.815Z,0.0000
2019-05-02T00:34:02.041Z,0.0000
2019-05-02T00:35:03.891Z,0.0000
2019-05-02T00:36:05.068Z,0.0000
2019-05-02T00:37:06.904Z,0.0000
2019-05-02T00:38:08.806Z,0.0000
2019-05-02T00:39:13.823Z,0.0000
2019-05-02T00:40:20.266Z,0.0000
2019-05-02T00:41:23.333Z,0.0000
2019-05-02T00:42:25.135Z,0.0000
2019-05-02T00:43:28.986Z,0.0000
2019-05-02T00:44:33.902Z,0.0000
2019-05-02T00:45:35.749Z,0.0000
2019-05-02T00:46:37.649Z,0.0000
2019-05-02T00:47:42.362Z,0.0000
2019-05-02T00:48:45.873Z,0.0000
2019-05-02T00:49:47.704Z,0.0000
2019-05-02T00:50:50.648Z,0.0000
2019-05-02T00:51:56.590Z,0.0000
2019-05-02T00:53:00.823Z,0.0000
2019-05-02T00:54:02.285Z,0.0000
2019-05-02T00:55:04.201Z,0.0000
2019-05-02T00:56:09.103Z,0.0000
2019-05-02T00:57:14.947Z,0.0000
2019-05-02T00:58:18.601Z,0.0000
2019-05-02T00:59:20.413Z,0.0000
2019-05-02T01:00:22.270Z,0.0000
2019-05-02T01:01:29.502Z,0.0000
2019-05-02T01:02:30.875Z,0.0000
2019-05-02T01:03:32.186Z,0.0000
2019-05-02T01:04:33.466Z,0.0000
2019-05-02T01:05:38.381Z,0.0000
2019-05-02T01:06:44.773Z,0.0000
2019-05-02T01:07:48.241Z,0.0000
2019-05-02T01:08:50.094Z,0.0000
2019-05-02T01:09:51.997Z,0.0000
2019-05-02T01:10:56.899Z,0.0000
2019-05-02T01:12:03.220Z,0.0000
2019-05-02T01:13:06.563Z,0.0000
2019-05-02T01:14:08.406Z,0.0000
2019-05-02T01:15:10.357Z,0.0000
2019-05-02T01:16:15.169Z,0.0000
2019-05-02T01:17:18.837Z,0.0000
2019-05-02T01:18:20.700Z,0.0000
2019-05-02T01:19:22.546Z,0.0000
2019-05-02T01:20:27.756Z,0.0000
2019-05-02T01:21:33.982Z,0.0000
2019-05-02T01:22:36.854Z,0.0000
2019-05-02T01:23:38.718Z,0.0167
2019-05-02T01:24:41.666Z,0.0167
2019-05-02T01:25:47.371Z,0.0000
2019-05-02T01:26:49.274Z,0.0000
2019-05-02T01:27:51.434Z,0.0000
2019-05-02T01:28:54.190Z,0.0000
2019-05-02T01:30:01.456Z,0.0000
2019-05-02T01:31:03.130Z,0.0000
2019-05-02T01:32:04.067Z,0.0000
2019-05-02T01:33:06.509Z,0.0000
2019-05-02T01:34:13.017Z,0.0000
2019-05-02T01:35:16.022Z,0.0000
2019-05-02T01:36:17.822Z,0.0000
2019-05-02T01:37:21.125Z,0.0000
2019-05-02T01:38:26.413Z,0.0000
2019-05-02T01:39:30.752Z,0.2177
2019-05-02T01:40:32.657Z,0.1340
2019-05-02T01:41:33.868Z,0.2512
2019-05-02T01:42:40.095Z,0.0167
2019-05-02T01:43:41.991Z,0.0000
2019-05-02T01:44:44.043Z,0.0000
2019-05-02T01:45:46.555Z,0.0335
2019-05-02T01:46:48.614Z,0.0167
2019-05-02T01:47:49.810Z,0.1340
2019-05-02T01:48:51.600Z,0.4187
2019-05-02T01:49:57.152Z,0.4522
2019-05-02T01:50:59.604Z,0.6866
2019-05-02T01:52:00.801Z,0.6699
2019-05-02T01:53:02.708Z,0.7034
2019-05-02T01:54:04.982Z,0.6866
2019-05-02T01:55:11.572Z,0.6699
2019-05-02T01:56:13.437Z,0.4187
2019-05-02T01:57:15.322Z,0.3517
2019-05-02T01:58:21.006Z,0.1005
2019-05-02T01:59:23.454Z,0.0502
2019-05-02T02:00:25.776Z,0.0167
2019-05-02T02:01:27.698Z,0.0000
2019-05-02T02:02:32.757Z,0.0000
2019-05-02T02:03:35.366Z,0.0000
2019-05-02T02:04:37.276Z,0.0000
2019-05-02T02:05:39.401Z,0.0335
2019-05-02T02:06:43.353Z,0.2345
2019-05-02T02:07:50.849Z,0.1005
2019-05-02T02:08:52.352Z,0.1842
2019-05-02T02:09:54.202Z,0.0000
2019-05-02T02:10:57.889Z,0.0167
2019-05-02T02:11:59.694Z,0.0335
2019-05-02T02:13:04.940Z,0.0502
2019-05-02T02:14:12.237Z,0.0000
2019-05-02T02:15:12.759Z,0.0000
2019-05-02T02:16:14.903Z,0.0000
2019-05-02T02:17:17.368Z,0.0000
2019-05-02T02:18:22.349Z,0.0000
2019-05-02T02:19:24.925Z,0.0000
2019-05-02T02:20:26.868Z,0.1005
2019-05-02T02:21:28.072Z,0.6029
2019-05-02T02:22:33.805Z,0.7369
2019-05-02T02:23:35.558Z,0.8541
2019-05-02T02:24:38.440Z,0.4019
2019-05-02T02:25:39.744Z,0.2177
2019-05-02T02:26:43.726Z,0.0000
2019-05-02T02:27:48.140Z,0.0000
2019-05-02T02:28:50.289Z,0.0000
2019-05-02T02:29:52.083Z,0.0000
2019-05-02T02:30:57.643Z,0.0000
2019-05-02T02:32:00.262Z,0.0000
2019-05-02T02:33:07.384Z,0.0000
2019-05-02T02:34:08.441Z,0.0000
2019-05-02T02:35:12.581Z,0.0000
2019-05-02T02:36:14.640Z,0.0000
2019-05-02T02:37:16.897Z,0.0000
2019-05-02T02:38:18.820Z,0.0000
2019-05-02T02:39:20.654Z,0.0000
2019-05-02T02:40:32.975Z,0.0000
2019-05-02T02:41:28.858Z,0.0000
2019-05-02T02:42:31.743Z,0.0000
2019-05-02T02:43:35.755Z,0.0000
2019-05-02T02:44:40.023Z,0.0000
2019-05-02T02:45:43.573Z,0.0000
2019-05-02T02:46:45.461Z,0.0000
2019-05-02T02:47:53.062Z,0.0000
2019-05-02T02:48:53.912Z,0.0167
2019-05-02T02:50:02.292Z,0.0000
2019-05-02T02:51:02.084Z,0.0000
2019-05-02T02:52:04.699Z,0.0000
2019-05-02T02:53:07.844Z,0.0000
2019-05-02T02:54:10.016Z,0.0000
2019-05-02T02:55:16.145Z,0.0000
2019-05-02T02:56:18.237Z,0.0000
2019-05-02T02:57:26.447Z,0.0000
2019-05-02T02:58:26.449Z,0.0000
2019-05-02T02:59:28.620Z,0.0000
2019-05-02T03:00:29.506Z,0.0000
2019-05-02T03:01:31.433Z,0.0000
2019-05-02T03:02:33.268Z,0.0000
2019-05-02T03:03:35.837Z,0.0000
2019-05-02T03:04:43.976Z,0.0000
2019-05-02T03:05:44.376Z,0.0000
2019-05-02T03:06:47.172Z,0.0000
2019-05-02T03:07:49.128Z,0.0000
2019-05-02T03:08:51.028Z,0.0000
2019-05-02T03:09:53.107Z,0.0000
2019-05-02T03:10:54.941Z,0.0000
2019-05-02T03:12:02.073Z,0.0000
2019-05-02T03:13:03.129Z,0.0000
2019-05-02T03:14:07.196Z,0.0000
2019-05-02T03:15:11.483Z,0.0000
2019-05-02T03:16:13.324Z,0.0000
2019-05-02T03:17:20.394Z,0.0000
2019-05-02T03:18:21.526Z,0.0000
2019-05-02T03:19:23.463Z,0.0167
2019-05-02T03:20:24.624Z,0.0502
2019-05-02T03:21:26.538Z,0.5024
2019-05-02T03:22:28.340Z,0.0000
2019-05-02T03:23:29.563Z,0.3517
2019-05-02T03:24:36.572Z,0.1340
2019-05-02T03:25:49.957Z,0.5527
2019-05-02T03:26:48.746Z,0.4354
2019-05-02T03:27:50.702Z,0.0335
2019-05-02T03:28:58.493Z,0.0000
2019-05-02T03:29:59.224Z,0.0335
2019-05-02T03:31:21.056Z,0.0167
2019-05-02T03:32:30.597Z,0.3852
2019-05-02T03:33:14.055Z,0.9378
2019-05-02T03:34:15.896Z,0.8876
2019-05-02T03:35:19.116Z,0.7871
2019-05-02T03:36:35.809Z,0.5862
2019-05-02T03:37:28.171Z,0.4522
2019-05-02T03:38:32.632Z,0.6196
2019-05-02T03:39:36.396Z,0.8876
2019-05-02T03:40:39.636Z,0.6196
2019-05-02T03:41:43.433Z,0.6531
2019-05-02T03:42:47.724Z,0.6699
2019-05-02T03:43:49.745Z,0.9044
2019-05-02T03:44:56.246Z,0.8541
2019-05-02T03:45:57.968Z,0.6364
2019-05-02T03:47:01.903Z,0.7871
2019-05-02T03:48:06.415Z,0.8709
2019-05-02T03:49:09.803Z,0.7034
2019-05-02T03:50:11.960Z,0.9044
2019-05-02T03:51:21.627Z,0.7704
2019-05-02T03:52:20.121Z,0.7704
2019-05-02T03:53:24.960Z,0.6364
2019-05-02T03:54:28.685Z,0.3684
2019-05-02T03:55:31.437Z,0.0502
2019-05-02T03:56:35.985Z,0.0000
2019-05-02T03:57:41.709Z,0.0335
2019-05-02T03:58:48.515Z,0.0000
2019-05-02T03:59:50.120Z,0.0000
2019-05-02T04:01:00.534Z,0.0000
2019-05-02T04:01:58.532Z,0.0000
2019-05-02T04:03:02.501Z,0.0000
2019-05-02T04:04:04.438Z,0.0000
2019-05-02T04:05:06.505Z,0.0000
2019-05-02T04:06:14.002Z,0.0000
2019-05-02T04:07:14.647Z,0.0000
2019-05-02T04:08:20.985Z,0.0000
2019-05-02T04:09:21.814Z,0.0000
2019-05-02T04:10:23.726Z,0.0000
2019-05-02T04:11:25.557Z,0.0000
2019-05-02T04:12:27.373Z,0.0000
2019-05-02T04:13:30.132Z,0.1005
2019-05-02T04:14:38.885Z,0.6196
2019-05-02T04:15:41.890Z,0.5862
2019-05-02T04:16:48.482Z,0.1842
2019-05-02T04:17:49.993Z,0.4857
2019-05-02T04:18:55.624Z,0.9713
2019-05-02T04:19:58.204Z,1.1556
2019-05-02T04:21:00.072Z,0.9546
2019-05-02T04:22:08.710Z,0.4187
2019-05-02T04:23:08.179Z,0.1340
2019-05-02T04:24:14.957Z,0.0000
2019-05-02T04:25:16.364Z,0.3517
2019-05-02T04:26:18.629Z,0.7034
2019-05-02T04:27:20.488Z,0.8709
2019-05-02T04:28:22.398Z,0.6699
2019-05-02T04:29:30.406Z,0.7704
2019-05-02T04:30:30.946Z,0.7201
2019-05-02T04:31:33.848Z,0.8876
2019-05-02T04:32:36.061Z,1.0048
2019-05-02T04:33:37.924Z,1.1221
2019-05-02T04:34:39.737Z,1.2895
2019-05-02T04:35:41.574Z,1.3733
2019-05-02T04:36:46.489Z,1.3063
2019-05-02T04:37:49.049Z,1.3900
2019-05-02T04:38:52.362Z,1.2393
2019-05-02T04:39:58.919Z,1.2895
2019-05-02T04:41:01.032Z,0.8709
2019-05-02T04:42:05.523Z,1.0048
2019-05-02T04:43:11.487Z,0.9881
2019-05-02T04:44:13.667Z,1.1891
2019-05-02T04:45:26.468Z,1.1388
2019-05-02T04:46:27.199Z,1.2225
2019-05-02T04:47:29.078Z,1.3063
2019-05-02T04:48:34.663Z,1.4738
2019-05-02T04:49:39.258Z,1.5073
2019-05-02T04:50:41.307Z,1.4905
2019-05-02T04:51:50.782Z,1.4738
2019-05-02T04:52:53.810Z,1.5407
2019-05-02T04:53:58.697Z,1.0718
2019-05-02T04:55:14.730Z,0.6531
2019-05-02T04:56:10.624Z,0.0670
2019-05-02T04:57:12.082Z,0.0000
2019-05-02T04:58:24.378Z,0.2345
2019-05-02T04:59:22.940Z,0.3349
2019-05-02T05:00:25.038Z,0.0670
2019-05-02T05:01:33.103Z,0.0000
2019-05-02T05:02:36.465Z,0.0000
2019-05-02T05:03:39.794Z,0.0000
2019-05-02T05:04:46.278Z,0.0000
2019-05-02T05:05:48.372Z,0.0000
2019-05-02T05:06:55.951Z,0.0000
2019-05-02T05:07:58.564Z,0.0000
2019-05-02T05:09:04.137Z,0.0000
2019-05-02T05:10:08.439Z,0.0000
2019-05-02T05:11:14.021Z,0.0000
2019-05-02T05:12:19.043Z,0.0000
2019-05-02T05:13:23.274Z,0.0000
2019-05-02T05:14:33.269Z,0.0000
2019-05-02T05:15:38.348Z,0.0000
2019-05-02T05:16:40.119Z,0.0000
2019-05-02T05:17:41.374Z,0.0000
2019-05-02T05:18:43.981Z,0.0000
2019-05-02T05:19:49.530Z,0.0000
2019-05-02T05:20:53.101Z,0.0000
2019-05-02T05:22:04.497Z,0.0000
2019-05-02T05:23:02.649Z,0.0000
2019-05-02T05:24:04.423Z,0.0000
2019-05-02T05:25:07.449Z,0.0000
2019-05-02T05:26:08.815Z,0.0000
2019-05-02T05:27:13.263Z,0.0000
2019-05-02T05:28:19.831Z,0.0000
2019-05-02T05:29:23.351Z,0.0000
2019-05-02T05:30:27.634Z,0.0000
2019-05-02T05:31:30.312Z,0.0000
2019-05-02T05:32:31.280Z,0.0000
2019-05-02T05:33:33.114Z,0.0000
2019-05-02T05:34:34.958Z,0.0000
2019-05-02T05:35:38.550Z,0.0000
2019-05-02T05:36:39.834Z,0.0000
2019-05-02T05:37:43.429Z,0.0000
2019-05-02T05:38:47.953Z,0.0000
2019-05-02T05:39:52.603Z,0.0000
2019-05-02T05:40:53.971Z,0.0000
2019-05-02T05:41:57.857Z,0.0000
2019-05-02T05:43:02.633Z,0.0000
2019-05-02T05:44:07.750Z,0.0335
2019-05-02T05:45:13.668Z,0.0167
2019-05-02T05:46:17.839Z,0.0000
2019-05-02T05:47:21.284Z,0.0000
2019-05-02T05:48:22.623Z,0.0000
2019-05-02T05:49:24.406Z,0.0335
2019-05-02T05:50:27.561Z,0.0670
2019-05-02T05:51:28.828Z,0.0000
2019-05-02T05:52:32.948Z,0.0000
2019-05-02T05:53:37.642Z,0.0000
2019-05-02T05:54:42.028Z,0.0000
2019-05-02T05:55:43.905Z,0.0000
2019-05-02T05:56:45.824Z,0.0000
2019-05-02T05:57:47.653Z,0.0000
2019-05-02T05:58:52.758Z,0.0000
2019-05-02T05:59:54.533Z,0.0000
2019-05-02T06:00:58.383Z,0.0000
2019-05-02T06:02:00.313Z,0.0000
2019-05-02T06:03:13.071Z,0.0000
2019-05-02T06:04:09.127Z,0.0000
2019-05-02T06:05:10.982Z,0.0000
2019-05-02T06:06:14.893Z,0.0000
2019-05-02T06:07:20.077Z,0.0000
2019-05-02T06:08:22.148Z,0.0000
2019-05-02T06:09:26.297Z,0.0000
2019-05-02T06:10:30.732Z,0.0000
2019-05-02T06:11:32.786Z,0.0000
2019-05-02T06:12:35.556Z,0.0000
2019-05-02T06:13:38.262Z,0.0000
2019-05-02T06:14:40.107Z,0.0000
2019-05-02T06:15:41.936Z,0.0000
2019-05-02T06:16:46.597Z,0.0000
2019-05-02T06:17:50.785Z,0.0000
2019-05-02T06:18:53.044Z,0.0000
2019-05-02T06:19:55.421Z,0.0000
2019-05-02T06:20:58.470Z,0.1172
2019-05-02T06:22:00.443Z,0.0335
2019-05-02T06:23:02.607Z,0.2680
2019-05-02T06:24:04.783Z,0.0502
2019-05-02T06:25:09.448Z,0.2010
2019-05-02T06:26:13.449Z,0.0837
2019-05-02T06:27:16.364Z,0.3852
2019-05-02T06:28:18.276Z,0.0502
2019-05-02T06:29:20.893Z,0.3349
2019-05-02T06:30:27.039Z,0.1507
2019-05-02T06:31:29.193Z,0.4187
2019-05-02T06:32:30.964Z,0.6196
2019-05-02T06:33:32.426Z,0.1340
2019-05-02T06:34:38.778Z,0.1340
2019-05-02T06:35:40.573Z,0.5192
2019-05-02T06:36:41.415Z,0.1005
2019-05-02T06:37:45.250Z,0.2345
2019-05-02T06:38:52.295Z,0.5192
2019-05-02T06:39:55.081Z,0.7201
2019-05-02T06:40:57.126Z,0.4522
2019-05-02T06:41:58.719Z,0.3349
2019-05-02T06:43:04.213Z,0.5694
2019-05-02T06:44:07.100Z,0.2345
2019-05-02T06:45:09.615Z,0.0670
2019-05-02T06:46:16.418Z,0.4019
2019-05-02T06:47:19.611Z,0.0837
2019-05-02T06:48:20.808Z,0.3517
2019-05-02T06:49:24.883Z,0.0670
2019-05-02T06:50:28.373Z,0.3015
2019-05-02T06:51:30.489Z,0.2010
2019-05-02T06:52:32.613Z,0.2345
2019-05-02T06:53:41.422Z,0.6699
2019-05-02T06:54:43.672Z,0.2177
2019-05-02T06:55:45.561Z,0.1675
2019-05-02T06:56:47.974Z,0.1842
2019-05-02T06:57:51.817Z,0.3015
2019-05-02T06:59:01.823Z,0.2847
2019-05-02T07:00:06.592Z,0.1172
2019-05-02T07:01:08.040Z,0.2847
2019-05-02T07:02:10.444Z,0.0000
2019-05-02T07:03:12.104Z,0.0502
2019-05-02T07:04:17.424Z,0.3349
2019-05-02T07:05:20.003Z,0.4187
2019-05-02T07:06:22.735Z,0.2345
2019-05-02T07:07:25.216Z,0.1675
2019-05-02T07:08:32.242Z,0.5359
2019-05-02T07:09:41.109Z,0.4187
2019-05-02T07:10:44.821Z,0.5694
2019-05-02T07:11:56.979Z,0.2345
2019-05-02T07:13:09.397Z,1.1053
2019-05-02T07:14:12.641Z,0.4689
2019-05-02T07:15:08.332Z,0.3684
2019-05-02T07:16:15.526Z,0.1340
2019-05-02T07:17:18.055Z,0.1675
2019-05-02T07:18:19.997Z,0.0335
2019-05-02T07:19:27.529Z,0.7034
2019-05-02T07:20:28.597Z,0.6364
2019-05-02T07:21:30.481Z,0.9211
2019-05-02T07:22:33.181Z,0.2177
2019-05-02T07:23:38.885Z,0.0502
2019-05-02T07:24:44.749Z,0.1675
2019-05-02T07:25:46.589Z,0.0837
2019-05-02T07:26:52.072Z,0.0167
2019-05-02T07:27:55.612Z,0.3015
2019-05-02T07:28:58.349Z,0.1340
2019-05-02T07:30:00.273Z,0.4019
2019-05-02T07:31:06.599Z,0.3182
2019-05-02T07:32:09.834Z,0.5192
2019-05-02T07:33:11.794Z,0.2345
2019-05-02T07:34:14.522Z,0.2177
2019-05-02T07:35:19.241Z,0.5527
2019-05-02T07:36:23.036Z,1.1053
2019-05-02T07:37:24.904Z,0.9881
2019-05-02T07:38:27.776Z,0.7704
2019-05-02T07:39:29.940Z,0.8541
2019-05-02T07:40:31.914Z,0.4354
2019-05-02T07:42:45.095Z,0.9713
2019-05-02T07:43:47.235Z,0.4019
2019-05-02T07:44:49.629Z,1.5575
2019-05-02T07:45:52.559Z,0.9546
2019-05-02T07:46:57.011Z,1.5575
2019-05-02T07:48:01.567Z,0.9881
2019-05-02T07:49:03.824Z,0.4857
2019-05-02T07:50:10.413Z,1.2560
2019-05-02T07:51:17.174Z,2.1102
2019-05-02T07:52:19.614Z,1.5073
2019-05-02T07:53:22.052Z,1.3565
2019-05-02T07:54:24.967Z,1.4235
2019-05-02T07:55:30.604Z,1.2728
2019-05-02T07:56:36.305Z,0.5862
2019-05-02T07:57:42.083Z,1.5240
2019-05-02T07:58:46.941Z,1.7082
2019-05-02T07:59:54.959Z,1.3733
2019-05-02T08:00:57.017Z,0.6531
2019-05-02T08:01:59.384Z,1.1723
2019-05-02T08:03:01.415Z,1.4570
2019-05-02T08:04:04.729Z,1.7250
2019-05-02T08:05:10.316Z,1.4068
2019-05-02T08:06:12.104Z,1.2225
2019-05-02T08:07:16.264Z,1.7585
2019-05-02T08:08:25.077Z,1.2560
2019-05-02T08:09:27.526Z,2.0097
2019-05-02T08:10:29.503Z,1.2393
2019-05-02T08:11:37.113Z,1.2393
2019-05-02T08:12:43.022Z,1.3733
2019-05-02T08:13:49.631Z,1.1221
2019-05-02T08:14:51.187Z,1.3733
2019-05-02T08:15:53.407Z,0.4522
2019-05-02T08:17:05.462Z,0.9881
2019-05-02T08:18:02.219Z,1.7585
2019-05-02T08:19:05.446Z,1.3230
2019-05-02T08:20:13.542Z,1.1388
2019-05-02T08:21:15.090Z,1.5742
2019-05-02T08:22:17.195Z,1.1891
2019-05-02T08:23:25.712Z,0.9044
2019-05-02T08:24:33.074Z,0.7536
2019-05-02T08:25:36.213Z,1.7417
2019-05-02T08:26:37.500Z,1.3733
2019-05-02T08:27:39.980Z,1.0383
2019-05-02T08:28:47.051Z,0.3684
2019-05-02T08:29:51.232Z,1.1891
2019-05-02T08:30:54.181Z,0.7034
2019-05-02T08:31:55.474Z,0.1842
2019-05-02T08:35:19.987Z,0.1675
2019-05-02T08:39:01.118Z,0.3015
2019-05-02T08:40:05.436Z,1.4403
2019-05-02T08:41:10.489Z,1.1723
2019-05-02T08:42:12.260Z,0.5862
2019-05-02T08:43:13.601Z,0.4522
2019-05-02T08:44:16.825Z,1.0048
2019-05-02T08:46:30.854Z,1.5575
2019-05-02T08:47:34.465Z,0.4857
2019-05-02T08:48:41.827Z,0.3852
2019-05-02T08:49:49.301Z,0.1842
2019-05-02T08:50:52.745Z,1.2895
2019-05-02T08:51:56.241Z,1.0216
2019-05-02T08:52:58.274Z,1.9259
2019-05-02T08:54:01.010Z,1.1221
2019-05-02T08:55:09.128Z,0.0502
2019-05-02T08:56:16.551Z,0.1340
2019-05-02T08:57:23.572Z,0.2010
2019-05-02T08:58:26.807Z,0.3349
2019-05-02T08:59:29.235Z,0.7201
2019-05-02T09:00:37.586Z,0.0837
2019-05-02T09:01:44.722Z,0.3015
2019-05-02T09:02:47.606Z,0.6364
2019-05-02T09:03:56.722Z,1.8589
2019-05-02T09:04:59.170Z,1.7585
2019-05-02T09:06:06.185Z,2.0934
2019-05-02T09:07:08.661Z,1.5254
2019-05-02T09:08:14.243Z,1.3733
2019-05-02T09:09:22.855Z,1.1723
2019-05-02T09:10:29.842Z,1.7585
2019-05-02T09:11:36.113Z,1.6077
2019-05-02T09:12:42.266Z,1.1388
2019-05-02T09:13:46.007Z,1.2058
2019-05-02T09:14:48.451Z,1.5073
2019-05-02T09:15:53.570Z,1.8757
2019-05-02T09:17:00.263Z,1.5742
2019-05-02T09:18:04.516Z,1.2225
2019-05-02T09:19:07.551Z,1.6915
2019-05-02T09:20:15.436Z,1.5241
2019-05-02T09:22:32.708Z,2.4953
2019-05-02T09:24:48.358Z,2.0432
2019-05-02T09:29:32.720Z,2.6628
2019-05-02T09:30:37.508Z,2.5456
2019-05-02T09:31:42.339Z,2.3279
2019-05-02T09:32:47.042Z,3.0314
2019-05-02T09:33:55.579Z,1.9929
2019-05-02T09:35:02.291Z,1.9762
2019-05-02T09:36:08.097Z,1.9762
2019-05-02T09:37:15.799Z,2.1939
2019-05-02T09:38:19.439Z,1.3565
2019-05-02T09:39:22.519Z,0.7201
2019-05-02T09:40:25.535Z,0.8039
2019-05-02T09:41:31.312Z,1.7920
2019-05-02T09:45:27.732Z,1.4570
2019-05-02T09:47:56.295Z,2.1939
2019-05-02T09:51:23.103Z,0.7369
2019-05-02T09:52:34.085Z,2.6630
2019-05-02T09:56:12.150Z,1.2393
2019-05-02T09:57:14.817Z,0.4187
2019-05-02T09:58:21.054Z,1.2058
2019-05-02T09:59:29.957Z,1.2895
2019-05-02T10:00:32.146Z,2.2441
2019-05-02T10:01:42.159Z,2.1604
2019-05-02T10:09:12.122Z,1.2560
2019-05-02T10:10:19.225Z,1.7752
2019-05-02T10:11:22.563Z,2.1269
2019-05-02T10:12:27.912Z,1.3230
2019-05-02T10:13:44.356Z,0.7536
2019-05-02T10:14:45.564Z,1.6077
2019-05-02T10:15:48.555Z,1.4570
2019-05-02T10:16:53.231Z,1.1221
2019-05-02T10:18:07.964Z,1.4235
2019-05-02T10:19:09.222Z,2.0432
2019-05-02T10:20:07.835Z,2.1771
2019-05-02T10:21:13.467Z,1.1221
2019-05-02T10:23:32.148Z,0.0167
2019-05-02T10:26:20.122Z,0.3015
2019-05-02T10:27:28.278Z,1.6580
2019-05-02T10:28:31.604Z,2.2777
2019-05-02T10:29:33.611Z,1.4068
2019-05-02T10:30:35.955Z,1.6412
2019-05-02T10:31:42.181Z,1.0886
2019-05-02T10:32:47.150Z,1.1388
2019-05-02T10:36:54.242Z,2.0432
2019-05-02T10:40:48.409Z,0.9713
2019-05-02T10:44:27.220Z,2.2609
2019-05-02T10:45:56.508Z,1.9427
2019-05-02T10:49:29.602Z,1.1556
2019-05-02T10:50:32.908Z,2.1604
2019-05-02T10:51:35.130Z,1.8589
2019-05-02T10:52:42.536Z,1.9762
2019-05-02T10:53:47.164Z,1.6245
2019-05-02T10:57:27.334Z,1.9428
2019-05-02T11:00:59.894Z,0.6866
2019-05-02T11:02:02.845Z,1.1891
2019-05-02T11:03:05.168Z,0.9881
2019-05-02T11:04:08.059Z,2.0097
2019-05-02T11:06:22.438Z,2.1269
2019-05-02T11:12:25.514Z,2.7298
2019-05-02T11:14:44.690Z,3.0145
2019-05-02T11:15:47.897Z,0.8876
2019-05-02T11:16:49.188Z,2.0097
2019-05-02T11:17:53.103Z,3.3674
2019-05-02T11:18:54.312Z,2.0103
2019-05-02T11:19:59.096Z,2.2110
2019-05-02T11:21:06.838Z,2.1270
2019-05-02T11:22:07.481Z,1.5745
2019-05-02T11:23:08.667Z,2.1773
2019-05-02T11:24:14.228Z,1.7083
2019-05-02T11:25:15.670Z,1.7417
2019-05-02T11:26:21.467Z,2.8638
2019-05-02T11:28:45.822Z,2.7298
2019-05-02T11:33:25.459Z,2.4953
2019-05-02T11:35:48.518Z,2.4787
2019-05-02T11:38:06.673Z,0.8379
2019-05-02T11:39:20.041Z,2.6126
2019-05-02T11:42:06.388Z,1.7417
2019-05-02T11:42:06.388Z,1.8087
2019-05-02T11:43:08.599Z,2.2106
2019-05-02T11:44:12.188Z,1.5742
2019-05-02T11:45:17.161Z,1.3063
2019-05-02T11:46:17.433Z,0.6029
2019-05-02T11:47:26.574Z,0.7536
2019-05-02T11:48:34.209Z,1.1891
2019-05-02T11:49:39.767Z,0.7034
2019-05-02T11:50:42.238Z,1.7752
2019-05-02T11:51:47.030Z,2.2946
2019-05-02T11:54:09.193Z,2.0767
2019-05-02T11:55:12.938Z,0.9546
2019-05-02T11:56:15.035Z,0.6196
2019-05-02T11:57:21.271Z,0.8040
2019-05-02T11:58:25.520Z,1.1556
2019-05-02T11:59:29.100Z,0.6866
2019-05-02T12:00:32.371Z,1.6915
2019-05-02T12:01:39.653Z,2.1939
2019-05-02T12:02:43.636Z,1.2728
2019-05-02T12:03:47.897Z,1.5240
2019-05-02T12:04:55.445Z,0.3349
2019-05-02T12:06:06.747Z,1.4403
2019-05-02T12:07:09.616Z,1.1556
2019-05-02T12:09:25.656Z,0.6699
2019-05-02T12:10:31.939Z,1.5911
2019-05-02T12:11:34.491Z,1.5910
2019-05-02T12:12:42.949Z,0.4354
2019-05-02T12:13:47.218Z,1.4738
2019-05-02T12:14:55.675Z,1.6747
2019-05-02T12:15:56.946Z,1.8589
2019-05-02T12:16:59.146Z,1.5910
2019-05-02T12:18:02.429Z,1.7923
2019-05-02T12:19:11.422Z,2.3781
2019-05-02T12:20:14.249Z,3.0815
2019-05-02T12:21:16.525Z,3.5002
2019-05-02T12:22:17.740Z,3.3830
2019-05-02T12:23:19.896Z,3.3327
2019-05-02T12:24:22.124Z,5.7779
2019-05-02T12:25:27.323Z,4.4046
2019-05-02T12:26:28.570Z,4.1701
2019-05-02T12:28:45.219Z,3.9356
2019-05-02T12:32:16.528Z,2.5792
2019-05-02T12:35:54.616Z,3.0818
2019-05-02T12:36:55.812Z,2.5121
2019-05-02T12:38:02.673Z,2.6631
2019-05-02T12:39:05.018Z,2.4452
2019-05-02T12:40:07.729Z,1.6747
2019-05-02T12:41:20.349Z,2.6969
2019-05-02T12:42:22.959Z,3.2825
2019-05-02T12:43:26.952Z,2.2945
2019-05-02T12:44:33.114Z,2.0935
2019-05-02T12:45:34.975Z,3.2490
2019-05-02T12:46:37.245Z,3.0316
2019-05-02T12:47:42.643Z,2.3111
2019-05-02T12:48:45.814Z,3.6174
2019-05-02T12:49:47.898Z,2.5289
2019-05-02T12:50:52.591Z,2.7633
2019-05-02T12:51:54.820Z,2.7132
2019-05-02T12:52:57.008Z,2.9978
2019-05-02T12:53:59.212Z,2.4618
2019-05-02T12:55:02.267Z,2.1604
2019-05-02T12:56:04.225Z,2.8474
2019-05-02T12:57:06.516Z,2.7465
2019-05-02T12:58:09.166Z,3.3997
2019-05-02T12:59:12.197Z,3.8686
2019-05-02T13:00:14.106Z,4.5385
2019-05-02T13:01:17.363Z,4.8401
2019-05-02T13:02:21.472Z,3.2490
2019-05-02T13:03:23.453Z,4.4883
2019-05-02T13:04:26.332Z,4.0362
2019-05-02T13:05:28.182Z,3.0815
2019-05-02T13:06:30.200Z,4.1031
2019-05-02T13:07:33.259Z,3.0313
2019-05-02T13:08:35.366Z,2.9810
2019-05-02T13:09:38.010Z,2.8639
2019-05-02T13:10:39.661Z,4.4380
2019-05-02T13:11:44.663Z,3.1820
2019-05-02T13:12:48.014Z,2.7298
2019-05-02T13:13:51.227Z,2.4618
2019-05-02T13:14:57.250Z,3.5169
2019-05-02T13:16:01.638Z,3.9021
2019-05-02T13:17:08.520Z,3.1318
2019-05-02T13:18:12.484Z,3.1987
2019-05-02T13:19:15.107Z,4.3543
2019-05-02T13:20:17.731Z,3.3160
2019-05-02T13:21:21.629Z,1.9762
2019-05-02T13:22:25.469Z,1.8422
2019-05-02T13:23:27.286Z,3.1988
2019-05-02T13:24:33.287Z,3.9360
2019-05-02T13:25:37.043Z,3.5002
2019-05-02T13:26:42.781Z,2.5122
2019-05-02T13:27:48.032Z,1.4570
2019-05-02T13:28:51.710Z,1.9427
2019-05-02T13:29:53.678Z,3.2322
2019-05-02T13:30:56.720Z,3.3328
2019-05-02T13:32:02.500Z,2.8805
2019-05-02T13:33:05.183Z,3.0481
2019-05-02T13:34:06.473Z,2.5288
2019-05-02T13:35:14.920Z,2.4451
2019-05-02T13:37:28.640Z,2.7800
2019-05-02T13:38:32.864Z,3.3662
2019-05-02T13:39:34.930Z,2.3614
2019-05-02T13:40:36.960Z,3.3160
2019-05-02T13:41:38.767Z,3.3164
2019-05-02T13:42:39.494Z,2.7800
2019-05-02T13:43:43.320Z,1.6412
2019-05-02T13:44:45.063Z,3.1485
2019-05-02T13:45:47.370Z,3.4667
2019-05-02T13:46:49.309Z,2.4618
2019-05-02T13:47:51.926Z,3.8519
2019-05-02T13:48:53.965Z,3.4499
2019-05-02T13:49:59.105Z,2.5288
2019-05-02T13:51:03.975Z,3.3829
2019-05-02T13:52:05.318Z,2.5958
2019-05-02T13:53:07.997Z,2.0934
2019-05-02T13:54:09.198Z,1.7754
2019-05-02T13:55:11.944Z,2.5121
2019-05-02T13:56:14.046Z,2.7801
2019-05-02T13:57:15.906Z,2.4451
2019-05-02T13:58:23.438Z,1.9594
2019-05-02T13:59:24.292Z,1.8589
2019-05-02T14:00:26.536Z,1.7417
2019-05-02T14:01:27.999Z,1.6918
2019-05-02T14:02:31.785Z,1.0719
2019-05-02T14:03:33.964Z,1.5917
2019-05-02T14:04:35.157Z,1.9765
2019-05-02T14:05:37.269Z,2.2786
2019-05-02T14:06:39.401Z,1.4235
2019-05-02T14:07:42.909Z,1.8255
2019-05-02T14:08:45.844Z,3.0480
2019-05-02T14:09:52.685Z,1.7752
2019-05-02T14:10:54.151Z,1.8087
2019-05-02T14:11:58.472Z,2.6967
2019-05-02T14:12:59.678Z,0.9546
2019-05-02T14:14:02.081Z,1.6245
2019-05-02T14:15:03.278Z,2.5456
2019-05-02T14:16:05.214Z,2.3279
2019-05-02T14:17:06.405Z,2.0432
2019-05-02T14:18:08.224Z,1.9595
2019-05-02T14:19:10.157Z,2.0934
2019-05-02T14:20:15.094Z,1.9427
2019-05-02T14:21:18.496Z,2.6796
2019-05-02T14:22:22.540Z,2.1771
2019-05-02T14:23:23.919Z,2.0097
2019-05-02T14:24:26.824Z,2.1771
2019-05-02T14:25:28.233Z,1.6080
2019-05-02T14:26:33.048Z,1.9766
2019-05-02T14:27:34.574Z,2.0599
2019-05-02T14:28:36.545Z,2.7968